Gowen, Oklahoma
Current Conditions -  °F | °C
As of 10:04 AM on Friday 19 Dec 2014 (Local Time) from KMLC Reporting Station
Moderate Fog Moderate Fog  
Wind Chill: 38°   Ceiling: 200
Heat Index: 42°   Visibility: 0.5mi
Dew Point: 41°   Wind: 6mph
Humidity: 96%   Direction: 360°N
Pressure: 30.26"   Gusts: NA
Location:  34.88°N, 95.48°W
Report Text: KMLC 191604Z AUTO 36005KT 1/2SM FG OVC002 06/05 A3026 RMK AO2 T00560050
Loading
Personal Weather Stations






























Interactive Weather Map New forecast layout! Learn more

10-Day Weather Forecast

Advertisements
Track Severe Weather on mobile